Terminal Aerodrome Forecast
Issued by NWS

Home | Current Version | Previous Version | Text Only | Print | Product List | Glossary Off
Versions: 1 2 3 4 5 6 7 8 9 10 11 12 13

971
FTUS45 KGGW 082324
TAFSDY
TAF
KSDY 082324Z 0900/0924 30010KT P6SM SCT180
     FM091600 26009KT P6SM SKC
     FM091800 27013KT P6SM SKC
     FM092200 27012KT P6SM SKC WS020/31040KT=

USA.gov is the U.S. government's official web portal to all federal, state and local government web resources and services.